sensor_id;sensor_type;location;lat;lon;timestamp;temperature;humidity
23471;DHT22;11908;50.806;4.424;2022-07-09T00:02:13;18.00;99.90
23471;DHT22;11908;50.806;4.424;2022-07-09T00:04:39;17.90;99.90
23471;DHT22;11908;50.806;4.424;2022-07-09T00:07:04;17.90;99.90
23471;DHT22;11908;50.806;4.424;2022-07-09T00:09:30;17.80;99.90
23471;DHT22;11908;50.806;4.424;2022-07-09T00:11:56;17.80;99.90
23471;DHT22;11908;50.806;4.424;2022-07-09T00:14:22;17.70;99.90
23471;DHT22;11908;50.806;4.424;2022-07-09T00:16:48;17.70;99.90
23471;DHT22;11908;50.806;4.424;2022-07-09T00:19:14;17.70;99.90
23471;DHT22;11908;50.806;4.424;2022-07-09T00:21:40;17.60;99.90
23471;DHT22;11908;50.806;4.424;2022-07-09T00:24:05;17.60;99.90
23471;DHT22;11908;50.806;4.424;2022-07-09T00:26:31;17.60;99.90
23471;DHT22;11908;50.806;4.424;2022-07-09T00:28:57;17.50;99.90
23471;DHT22;11908;50.806;4.424;2022-07-09T00:31:23;17.40;99.90
23471;DHT22;11908;50.806;4.424;2022-07-09T00:33:49;17.50;99.90
23471;DHT22;11908;50.806;4.424;2022-07-09T00:36:14;17.40;99.90
23471;DHT22;11908;50.806;4.424;2022-07-09T00:38:40;17.40;99.90
23471;DHT22;11908;50.806;4.424;2022-07-09T00:41:06;17.40;99.90
23471;DHT22;11908;50.806;4.424;2022-07-09T00:43:31;17.30;99.90
23471;DHT22;11908;50.806;4.424;2022-07-09T00:45:57;17.30;99.90
23471;DHT22;11908;50.806;4.424;2022-07-09T00:48:23;17.30;99.90
23471;DHT22;11908;50.806;4.424;2022-07-09T00:50:49;17.30;99.90
23471;DHT22;11908;50.806;4.424;2022-07-09T00:53:16;17.30;99.90
23471;DHT22;11908;50.806;4.424;2022-07-09T00:55:44;17.30;99.90
23471;DHT22;11908;50.806;4.424;2022-07-09T00:58:12;17.30;99.90
23471;DHT22;11908;50.806;4.424;2022-07-09T01:00:39;17.30;99.90
23471;DHT22;11908;50.806;4.424;2022-07-09T01:03:06;17.30;99.90
23471;DHT22;11908;50.806;4.424;2022-07-09T01:05:32;17.30;99.90
23471;DHT22;11908;50.806;4.424;2022-07-09T01:08:05;17.30;99.90
23471;DHT22;11908;50.806;4.424;2022-07-09T01:10:32;17.30;99.90
23471;DHT22;11908;50.806;4.424;2022-07-09T01:12:59;17.20;99.90
23471;DHT22;11908;50.806;4.424;2022-07-09T01:15:24;17.20;99.90
23471;DHT22;11908;50.806;4.424;2022-07-09T01:17:50;17.10;99.90
23471;DHT22;11908;50.806;4.424;2022-07-09T01:20:27;17.10;99.90
23471;DHT22;11908;50.806;4.424;2022-07-09T01:22:58;17.10;99.90
23471;DHT22;11908;50.806;4.424;2022-07-09T01:25:38;17.10;99.90
23471;DHT22;11908;50.806;4.424;2022-07-09T01:28:05;17.00;99.90
23471;DHT22;11908;50.806;4.424;2022-07-09T01:30:32;17.00;99.90
23471;DHT22;11908;50.806;4.424;2022-07-09T01:32:59;17.00;99.90
23471;DHT22;11908;50.806;4.424;2022-07-09T01:35:25;17.00;99.90
23471;DHT22;11908;50.806;4.424;2022-07-09T01:37:51;17.00;99.90
23471;DHT22;11908;50.806;4.424;2022-07-09T01:40:17;17.00;99.90
23471;DHT22;11908;50.806;4.424;2022-07-09T01:42:43;17.00;99.90
23471;DHT22;11908;50.806;4.424;2022-07-09T01:45:09;17.00;99.90
23471;DHT22;11908;50.806;4.424;2022-07-09T01:47:35;17.10;99.90
23471;DHT22;11908;50.806;4.424;2022-07-09T01:50:01;17.00;99.90
23471;DHT22;11908;50.806;4.424;2022-07-09T01:52:28;17.10;99.90
23471;DHT22;11908;50.806;4.424;2022-07-09T01:54:54;17.10;99.90
23471;DHT22;11908;50.806;4.424;2022-07-09T01:57:20;17.10;99.90
23471;DHT22;11908;50.806;4.424;2022-07-09T01:59:45;17.20;99.90
23471;DHT22;11908;50.806;4.424;2022-07-09T02:02:11;17.10;99.90
23471;DHT22;11908;50.806;4.424;2022-07-09T02:04:37;17.00;99.90
23471;DHT22;11908;50.806;4.424;2022-07-09T02:07:03;17.00;99.90
23471;DHT22;11908;50.806;4.424;2022-07-09T02:09:29;16.90;99.90
23471;DHT22;11908;50.806;4.424;2022-07-09T02:11:54;16.90;99.90
23471;DHT22;11908;50.806;4.424;2022-07-09T02:14:20;16.90;99.90
23471;DHT22;11908;50.806;4.424;2022-07-09T02:16:46;16.80;99.90
23471;DHT22;11908;50.806;4.424;2022-07-09T02:19:12;16.70;99.90
23471;DHT22;11908;50.806;4.424;2022-07-09T02:21:37;16.70;99.90
23471;DHT22;11908;50.806;4.424;2022-07-09T02:24:03;16.70;99.90
23471;DHT22;11908;50.806;4.424;2022-07-09T02:26:29;16.70;99.90
23471;DHT22;11908;50.806;4.424;2022-07-09T02:28:55;16.70;99.90
23471;DHT22;11908;50.806;4.424;2022-07-09T02:31:21;16.70;99.90
23471;DHT22;11908;50.806;4.424;2022-07-09T02:33:47;16.70;99.90
23471;DHT22;11908;50.806;4.424;2022-07-09T02:36:13;16.70;99.90
23471;DHT22;11908;50.806;4.424;2022-07-09T02:38:39;16.70;99.90
23471;DHT22;11908;50.806;4.424;2022-07-09T02:41:04;16.70;99.90
23471;DHT22;11908;50.806;4.424;2022-07-09T02:43:30;16.70;99.90
23471;DHT22;11908;50.806;4.424;2022-07-09T02:45:56;16.70;99.90
23471;DHT22;11908;50.806;4.424;2022-07-09T02:48:22;16.80;99.90
23471;DHT22;11908;50.806;4.424;2022-07-09T02:50:52;16.80;99.90
23471;DHT22;11908;50.806;4.424;2022-07-09T02:53:18;16.80;99.90
23471;DHT22;11908;50.806;4.424;2022-07-09T02:55:44;16.80;99.90
23471;DHT22;11908;50.806;4.424;2022-07-09T02:58:10;16.80;99.90
23471;DHT22;11908;50.806;4.424;2022-07-09T03:00:37;16.70;99.90
23471;DHT22;11908;50.806;4.424;2022-07-09T03:03:05;16.70;99.90
23471;DHT22;11908;50.806;4.424;2022-07-09T03:05:31;16.80;99.90
23471;DHT22;11908;50.806;4.424;2022-07-09T03:07:57;16.80;99.90
23471;DHT22;11908;50.806;4.424;2022-07-09T03:10:22;16.80;99.90
23471;DHT22;11908;50.806;4.424;2022-07-09T03:12:48;16.80;99.90
23471;DHT22;11908;50.806;4.424;2022-07-09T03:15:14;16.80;99.90
23471;DHT22;11908;50.806;4.424;2022-07-09T03:17:42;16.80;99.90
23471;DHT22;11908;50.806;4.424;2022-07-09T03:20:08;16.80;99.90
23471;DHT22;11908;50.806;4.424;2022-07-09T03:22:35;16.90;99.90
23471;DHT22;11908;50.806;4.424;2022-07-09T03:25:01;16.80;99.90
23471;DHT22;11908;50.806;4.424;2022-07-09T03:27:27;16.80;99.90
23471;DHT22;11908;50.806;4.424;2022-07-09T03:29:52;16.80;99.90
23471;DHT22;11908;50.806;4.424;2022-07-09T03:32:18;16.80;99.90
23471;DHT22;11908;50.806;4.424;2022-07-09T03:34:44;16.70;99.90
23471;DHT22;11908;50.806;4.424;2022-07-09T03:37:09;16.70;99.90
23471;DHT22;11908;50.806;4.424;2022-07-09T03:39:35;16.70;99.90
23471;DHT22;11908;50.806;4.424;2022-07-09T03:42:01;16.70;99.90
23471;DHT22;11908;50.806;4.424;2022-07-09T03:44:27;16.70;99.90
23471;DHT22;11908;50.806;4.424;2022-07-09T03:46:52;16.70;99.90
23471;DHT22;11908;50.806;4.424;2022-07-09T03:49:18;16.70;99.90
23471;DHT22;11908;50.806;4.424;2022-07-09T03:51:44;16.80;99.90
23471;DHT22;11908;50.806;4.424;2022-07-09T03:54:10;16.80;99.90
23471;DHT22;11908;50.806;4.424;2022-07-09T03:56:35;16.80;99.90
23471;DHT22;11908;50.806;4.424;2022-07-09T03:59:01;16.80;99.90
23471;DHT22;11908;50.806;4.424;2022-07-09T04:01:27;16.80;99.90
23471;DHT22;11908;50.806;4.424;2022-07-09T04:03:53;16.80;99.90
23471;DHT22;11908;50.806;4.424;2022-07-09T04:06:19;16.90;99.90
23471;DHT22;11908;50.806;4.424;2022-07-09T04:08:46;16.90;99.90
23471;DHT22;11908;50.806;4.424;2022-07-09T04:11:11;17.00;99.90
23471;DHT22;11908;50.806;4.424;2022-07-09T04:13:37;17.00;99.90
23471;DHT22;11908;50.806;4.424;2022-07-09T04:16:03;17.10;99.90
23471;DHT22;11908;50.806;4.424;2022-07-09T04:18:29;17.20;99.90
23471;DHT22;11908;50.806;4.424;2022-07-09T04:20:54;17.20;99.90
23471;DHT22;11908;50.806;4.424;2022-07-09T04:23:22;17.30;99.90
23471;DHT22;11908;50.806;4.424;2022-07-09T04:25:48;17.30;99.90
23471;DHT22;11908;50.806;4.424;2022-07-09T04:28:16;17.30;99.90
23471;DHT22;11908;50.806;4.424;2022-07-09T04:30:42;17.40;99.90
23471;DHT22;11908;50.806;4.424;2022-07-09T04:33:08;17.40;99.90
23471;DHT22;11908;50.806;4.424;2022-07-09T04:35:34;17.50;99.90
23471;DHT22;11908;50.806;4.424;2022-07-09T04:38:01;17.60;99.90
23471;DHT22;11908;50.806;4.424;2022-07-09T04:40:27;17.80;99.90
23471;DHT22;11908;50.806;4.424;2022-07-09T04:42:52;18.10;99.90
23471;DHT22;11908;50.806;4.424;2022-07-09T04:45:18;18.90;99.90
23471;DHT22;11908;50.806;4.424;2022-07-09T04:47:44;19.60;99.90
23471;DHT22;11908;50.806;4.424;2022-07-09T04:50:10;20.00;99.90
23471;DHT22;11908;50.806;4.424;2022-07-09T04:52:37;20.60;99.90
23471;DHT22;11908;50.806;4.424;2022-07-09T04:55:03;20.80;99.90
23471;DHT22;11908;50.806;4.424;2022-07-09T04:57:29;20.90;99.90
23471;DHT22;11908;50.806;4.424;2022-07-09T05:00:01;21.40;99.90
23471;DHT22;11908;50.806;4.424;2022-07-09T05:02:27;22.30;99.90
23471;DHT22;11908;50.806;4.424;2022-07-09T05:04:53;23.10;99.90
23471;DHT22;11908;50.806;4.424;2022-07-09T05:07:18;23.50;99.90
23471;DHT22;11908;50.806;4.424;2022-07-09T05:09:44;24.00;99.90
23471;DHT22;11908;50.806;4.424;2022-07-09T05:12:09;24.40;99.90
23471;DHT22;11908;50.806;4.424;2022-07-09T05:14:38;25.00;99.90
23471;DHT22;11908;50.806;4.424;2022-07-09T05:17:05;25.30;99.90
23471;DHT22;11908;50.806;4.424;2022-07-09T05:19:31;25.40;99.90
23471;DHT22;11908;50.806;4.424;2022-07-09T05:21:57;25.20;99.90
23471;DHT22;11908;50.806;4.424;2022-07-09T05:24:23;24.90;99.90
23471;DHT22;11908;50.806;4.424;2022-07-09T05:26:49;24.60;99.90
23471;DHT22;11908;50.806;4.424;2022-07-09T05:29:14;24.30;99.90
23471;DHT22;11908;50.806;4.424;2022-07-09T05:31:40;24.30;99.90
23471;DHT22;11908;50.806;4.424;2022-07-09T05:34:06;25.30;99.90
23471;DHT22;11908;50.806;4.424;2022-07-09T05:36:33;26.90;99.90
23471;DHT22;11908;50.806;4.424;2022-07-09T05:38:59;28.20;99.90
23471;DHT22;11908;50.806;4.424;2022-07-09T05:41:26;29.40;99.90
23471;DHT22;11908;50.806;4.424;2022-07-09T05:43:52;30.40;99.90
23471;DHT22;11908;50.806;4.424;2022-07-09T05:46:18;30.90;99.90
23471;DHT22;11908;50.806;4.424;2022-07-09T05:48:44;31.50;99.90
23471;DHT22;11908;50.806;4.424;2022-07-09T05:51:09;32.00;99.90
23471;DHT22;11908;50.806;4.424;2022-07-09T05:53:35;32.40;99.90
23471;DHT22;11908;50.806;4.424;2022-07-09T05:56:00;32.70;99.90
23471;DHT22;11908;50.806;4.424;2022-07-09T05:58:26;33.20;99.40
23471;DHT22;11908;50.806;4.424;2022-07-09T06:00:52;33.70;98.20
23471;DHT22;11908;50.806;4.424;2022-07-09T06:03:18;34.00;97.10
23471;DHT22;11908;50.806;4.424;2022-07-09T06:05:43;33.80;96.60
23471;DHT22;11908;50.806;4.424;2022-07-09T06:08:09;34.50;95.80
23471;DHT22;11908;50.806;4.424;2022-07-09T06:10:35;34.80;93.90
23471;DHT22;11908;50.806;4.424;2022-07-09T06:13:01;34.80;93.50
23471;DHT22;11908;50.806;4.424;2022-07-09T06:15:27;35.20;92.60
23471;DHT22;11908;50.806;4.424;2022-07-09T06:17:53;35.60;92.00
23471;DHT22;11908;50.806;4.424;2022-07-09T06:20:19;36.10;91.10
23471;DHT22;11908;50.806;4.424;2022-07-09T06:22:44;35.90;90.40
23471;DHT22;11908;50.806;4.424;2022-07-09T06:25:10;35.60;88.40
23471;DHT22;11908;50.806;4.424;2022-07-09T06:27:36;35.90;88.70
23471;DHT22;11908;50.806;4.424;2022-07-09T06:30:02;36.50;87.50
23471;DHT22;11908;50.806;4.424;2022-07-09T06:32:27;36.00;87.30
23471;DHT22;11908;50.806;4.424;2022-07-09T06:34:53;36.10;85.10
23471;DHT22;11908;50.806;4.424;2022-07-09T06:37:19;36.60;83.50
23471;DHT22;11908;50.806;4.424;2022-07-09T06:39:45;36.60;82.30
23471;DHT22;11908;50.806;4.424;2022-07-09T06:42:14;36.50;81.30
23471;DHT22;11908;50.806;4.424;2022-07-09T06:44:40;36.00;81.70
23471;DHT22;11908;50.806;4.424;2022-07-09T06:47:06;35.50;82.70
23471;DHT22;11908;50.806;4.424;2022-07-09T06:49:32;35.30;82.80
23471;DHT22;11908;50.806;4.424;2022-07-09T06:51:59;35.90;82.70
23471;DHT22;11908;50.806;4.424;2022-07-09T06:54:25;36.10;81.70
23471;DHT22;11908;50.806;4.424;2022-07-09T06:56:50;35.90;81.90
23471;DHT22;11908;50.806;4.424;2022-07-09T06:59:16;35.90;80.80
23471;DHT22;11908;50.806;4.424;2022-07-09T07:01:46;35.40;80.10
23471;DHT22;11908;50.806;4.424;2022-07-09T07:04:12;35.00;81.60
23471;DHT22;11908;50.806;4.424;2022-07-09T07:06:38;35.20;82.30
23471;DHT22;11908;50.806;4.424;2022-07-09T07:09:04;34.40;83.10
23471;DHT22;11908;50.806;4.424;2022-07-09T07:11:30;34.40;83.70
23471;DHT22;11908;50.806;4.424;2022-07-09T07:13:56;34.40;82.90
23471;DHT22;11908;50.806;4.424;2022-07-09T07:16:21;34.20;82.50
23471;DHT22;11908;50.806;4.424;2022-07-09T07:18:47;34.40;82.20
23471;DHT22;11908;50.806;4.424;2022-07-09T07:21:12;33.60;82.80
23471;DHT22;11908;50.806;4.424;2022-07-09T07:23:38;33.20;83.90
23471;DHT22;11908;50.806;4.424;2022-07-09T07:26:04;33.30;85.50
23471;DHT22;11908;50.806;4.424;2022-07-09T07:28:29;33.30;85.90
23471;DHT22;11908;50.806;4.424;2022-07-09T07:30:55;33.10;86.00
23471;DHT22;11908;50.806;4.424;2022-07-09T07:33:21;32.80;87.00
23471;DHT22;11908;50.806;4.424;2022-07-09T07:35:47;32.10;89.40
23471;DHT22;11908;50.806;4.424;2022-07-09T07:38:13;31.60;90.30
23471;DHT22;11908;50.806;4.424;2022-07-09T07:40:39;31.00;90.40
23471;DHT22;11908;50.806;4.424;2022-07-09T07:43:05;31.20;91.70
23471;DHT22;11908;50.806;4.424;2022-07-09T07:45:32;31.70;91.50
23471;DHT22;11908;50.806;4.424;2022-07-09T07:47:57;32.80;90.40
23471;DHT22;11908;50.806;4.424;2022-07-09T07:50:23;32.70;89.20
23471;DHT22;11908;50.806;4.424;2022-07-09T07:52:49;32.70;87.90
23471;DHT22;11908;50.806;4.424;2022-07-09T07:55:16;32.60;88.50
23471;DHT22;11908;50.806;4.424;2022-07-09T07:57:41;32.50;90.30
23471;DHT22;11908;50.806;4.424;2022-07-09T08:00:07;31.70;90.30
23471;DHT22;11908;50.806;4.424;2022-07-09T08:02:34;31.40;90.60
23471;DHT22;11908;50.806;4.424;2022-07-09T08:05:02;31.50;91.60
23471;DHT22;11908;50.806;4.424;2022-07-09T08:07:28;31.30;91.30
23471;DHT22;11908;50.806;4.424;2022-07-09T08:09:53;31.20;92.00
23471;DHT22;11908;50.806;4.424;2022-07-09T08:12:19;31.70;91.60
23471;DHT22;11908;50.806;4.424;2022-07-09T08:14:45;32.10;90.70
23471;DHT22;11908;50.806;4.424;2022-07-09T08:17:10;32.80;90.30
23471;DHT22;11908;50.806;4.424;2022-07-09T08:19:36;32.30;90.00
23471;DHT22;11908;50.806;4.424;2022-07-09T08:22:02;32.80;89.00
23471;DHT22;11908;50.806;4.424;2022-07-09T08:24:28;33.60;88.60
23471;DHT22;11908;50.806;4.424;2022-07-09T08:26:53;34.20;85.80
23471;DHT22;11908;50.806;4.424;2022-07-09T08:29:19;34.80;84.90
23471;DHT22;11908;50.806;4.424;2022-07-09T08:31:45;35.50;83.10
23471;DHT22;11908;50.806;4.424;2022-07-09T08:34:11;35.80;83.30
23471;DHT22;11908;50.806;4.424;2022-07-09T08:36:36;35.60;81.10
23471;DHT22;11908;50.806;4.424;2022-07-09T08:39:02;35.60;81.20
23471;DHT22;11908;50.806;4.424;2022-07-09T08:41:28;35.30;79.70
23471;DHT22;11908;50.806;4.424;2022-07-09T08:43:54;35.20;80.30
23471;DHT22;11908;50.806;4.424;2022-07-09T08:46:20;35.80;80.20
23471;DHT22;11908;50.806;4.424;2022-07-09T08:48:46;35.50;79.80
23471;DHT22;11908;50.806;4.424;2022-07-09T08:51:12;35.20;80.20
23471;DHT22;11908;50.806;4.424;2022-07-09T08:53:43;35.30;80.20
23471;DHT22;11908;50.806;4.424;2022-07-09T08:56:09;36.00;78.60
23471;DHT22;11908;50.806;4.424;2022-07-09T08:58:35;36.30;79.20
23471;DHT22;11908;50.806;4.424;2022-07-09T09:01:01;36.90;77.30
23471;DHT22;11908;50.806;4.424;2022-07-09T09:03:27;36.40;76.90
23471;DHT22;11908;50.806;4.424;2022-07-09T09:06:07;36.10;78.80
23471;DHT22;11908;50.806;4.424;2022-07-09T09:11:01;36.50;77.30
23471;DHT22;11908;50.806;4.424;2022-07-09T09:13:27;36.80;77.50
23471;DHT22;11908;50.806;4.424;2022-07-09T09:16:05;36.90;76.50
23471;DHT22;11908;50.806;4.424;2022-07-09T09:18:41;36.30;77.70
23471;DHT22;11908;50.806;4.424;2022-07-09T09:21:08;35.90;78.40
23471;DHT22;11908;50.806;4.424;2022-07-09T09:23:45;35.80;78.70
23471;DHT22;11908;50.806;4.424;2022-07-09T09:26:18;36.10;79.10
23471;DHT22;11908;50.806;4.424;2022-07-09T09:28:54;36.00;80.70
23471;DHT22;11908;50.806;4.424;2022-07-09T09:33:49;35.60;79.70
23471;DHT22;11908;50.806;4.424;2022-07-09T09:36:34;35.60;82.30
23471;DHT22;11908;50.806;4.424;2022-07-09T09:39:16;35.40;80.30
23471;DHT22;11908;50.806;4.424;2022-07-09T09:41:46;35.90;79.80
23471;DHT22;11908;50.806;4.424;2022-07-09T09:44:17;35.80;78.40
23471;DHT22;11908;50.806;4.424;2022-07-09T09:46:44;36.20;79.40
23471;DHT22;11908;50.806;4.424;2022-07-09T09:49:12;35.90;79.70
23471;DHT22;11908;50.806;4.424;2022-07-09T09:51:47;36.40;79.40
23471;DHT22;11908;50.806;4.424;2022-07-09T09:54:15;36.00;77.60
23471;DHT22;11908;50.806;4.424;2022-07-09T09:56:41;36.30;79.30
23471;DHT22;11908;50.806;4.424;2022-07-09T09:59:08;36.60;79.30
23471;DHT22;11908;50.806;4.424;2022-07-09T10:01:34;36.90;77.00
23471;DHT22;11908;50.806;4.424;2022-07-09T10:04:00;36.50;77.10
23471;DHT22;11908;50.806;4.424;2022-07-09T10:06:26;35.70;79.60
23471;DHT22;11908;50.806;4.424;2022-07-09T10:08:56;34.70;82.00
23471;DHT22;11908;50.806;4.424;2022-07-09T10:11:22;34.40;82.70
23471;DHT22;11908;50.806;4.424;2022-07-09T10:13:52;33.80;85.10
23471;DHT22;11908;50.806;4.424;2022-07-09T10:16:18;33.40;85.90
23471;DHT22;11908;50.806;4.424;2022-07-09T10:18:53;33.40;86.90
23471;DHT22;11908;50.806;4.424;2022-07-09T10:21:33;33.10;88.20
23471;DHT22;11908;50.806;4.424;2022-07-09T10:23:59;32.90;90.00
23471;DHT22;11908;50.806;4.424;2022-07-09T10:27:10;33.00;90.90
23471;DHT22;11908;50.806;4.424;2022-07-09T10:32:28;31.80;92.00
23471;DHT22;11908;50.806;4.424;2022-07-09T10:37:42;30.50;94.90
23471;DHT22;11908;50.806;4.424;2022-07-09T10:40:15;30.90;95.40
23471;DHT22;11908;50.806;4.424;2022-07-09T10:42:57;31.50;94.40
23471;DHT22;11908;50.806;4.424;2022-07-09T10:45:24;31.90;93.70
23471;DHT22;11908;50.806;4.424;2022-07-09T10:47:55;31.60;93.50
23471;DHT22;11908;50.806;4.424;2022-07-09T10:50:21;31.50;92.90
23471;DHT22;11908;50.806;4.424;2022-07-09T10:52:48;31.30;93.80
23471;DHT22;11908;50.806;4.424;2022-07-09T10:55:22;31.50;94.50
23471;DHT22;11908;50.806;4.424;2022-07-09T10:57:48;31.50;94.40
23471;DHT22;11908;50.806;4.424;2022-07-09T11:00:16;32.00;92.80
23471;DHT22;11908;50.806;4.424;2022-07-09T11:03:01;32.10;92.10
23471;DHT22;11908;50.806;4.424;2022-07-09T11:05:32;32.50;92.20
23471;DHT22;11908;50.806;4.424;2022-07-09T11:08:05;33.10;92.50
23471;DHT22;11908;50.806;4.424;2022-07-09T11:10:35;32.70;91.80
23471;DHT22;11908;50.806;4.424;2022-07-09T11:13:02;32.00;92.30
23471;DHT22;11908;50.806;4.424;2022-07-09T11:15:29;31.60;92.50
23471;DHT22;11908;50.806;4.424;2022-07-09T11:17:59;31.80;92.90
23471;DHT22;11908;50.806;4.424;2022-07-09T11:20:26;32.00;92.00
23471;DHT22;11908;50.806;4.424;2022-07-09T11:22:52;31.50;93.50
23471;DHT22;11908;50.806;4.424;2022-07-09T11:25:22;31.10;94.40
23471;DHT22;11908;50.806;4.424;2022-07-09T11:27:49;30.60;95.30
23471;DHT22;11908;50.806;4.424;2022-07-09T11:30:15;30.40;95.10
23471;DHT22;11908;50.806;4.424;2022-07-09T11:32:44;30.30;95.40
23471;DHT22;11908;50.806;4.424;2022-07-09T11:35:11;29.60;96.30
23471;DHT22;11908;50.806;4.424;2022-07-09T11:37:38;29.20;97.00
23471;DHT22;11908;50.806;4.424;2022-07-09T11:40:15;28.50;97.10
23471;DHT22;11908;50.806;4.424;2022-07-09T11:42:42;28.50;98.10
23471;DHT22;11908;50.806;4.424;2022-07-09T11:45:09;28.50;98.40
23471;DHT22;11908;50.806;4.424;2022-07-09T11:47:36;28.40;98.50
23471;DHT22;11908;50.806;4.424;2022-07-09T11:50:11;28.00;98.80
23471;DHT22;11908;50.806;4.424;2022-07-09T11:52:43;28.20;99.00
23471;DHT22;11908;50.806;4.424;2022-07-09T11:58:07;28.30;99.10
23471;DHT22;11908;50.806;4.424;2022-07-09T12:00:34;28.20;99.10
23471;DHT22;11908;50.806;4.424;2022-07-09T12:03:01;27.80;99.70
23471;DHT22;11908;50.806;4.424;2022-07-09T12:05:34;27.90;99.60
23471;DHT22;11908;50.806;4.424;2022-07-09T12:08:06;27.90;99.00
23471;DHT22;11908;50.806;4.424;2022-07-09T12:10:37;28.00;99.20
23471;DHT22;11908;50.806;4.424;2022-07-09T12:13:04;28.40;98.50
23471;DHT22;11908;50.806;4.424;2022-07-09T12:15:29;28.60;98.30
23471;DHT22;11908;50.806;4.424;2022-07-09T12:17:59;28.80;97.10
23471;DHT22;11908;50.806;4.424;2022-07-09T12:20:30;28.30;97.40
23471;DHT22;11908;50.806;4.424;2022-07-09T12:22:57;28.00;98.40
23471;DHT22;11908;50.806;4.424;2022-07-09T12:25:23;27.80;99.20
23471;DHT22;11908;50.806;4.424;2022-07-09T12:27:49;27.40;99.20
23471;DHT22;11908;50.806;4.424;2022-07-09T12:30:16;27.60;99.90
23471;DHT22;11908;50.806;4.424;2022-07-09T12:32:42;27.30;99.90
23471;DHT22;11908;50.806;4.424;2022-07-09T12:35:09;27.30;99.90
23471;DHT22;11908;50.806;4.424;2022-07-09T12:37:35;27.20;99.90
23471;DHT22;11908;50.806;4.424;2022-07-09T12:40:02;27.10;99.90
23471;DHT22;11908;50.806;4.424;2022-07-09T12:42:28;26.80;99.90
23471;DHT22;11908;50.806;4.424;2022-07-09T12:44:54;26.60;99.90
23471;DHT22;11908;50.806;4.424;2022-07-09T12:47:20;26.60;99.90
23471;DHT22;11908;50.806;4.424;2022-07-09T12:49:45;27.00;99.90
23471;DHT22;11908;50.806;4.424;2022-07-09T12:52:11;27.20;99.90
23471;DHT22;11908;50.806;4.424;2022-07-09T12:54:37;27.00;99.90
23471;DHT22;11908;50.806;4.424;2022-07-09T12:57:03;26.80;99.90
23471;DHT22;11908;50.806;4.424;2022-07-09T12:59:29;26.40;99.90
23471;DHT22;11908;50.806;4.424;2022-07-09T13:01:54;26.10;99.90
23471;DHT22;11908;50.806;4.424;2022-07-09T13:04:20;25.80;99.90
23471;DHT22;11908;50.806;4.424;2022-07-09T13:06:46;25.80;99.90
23471;DHT22;11908;50.806;4.424;2022-07-09T13:09:11;25.70;99.90
23471;DHT22;11908;50.806;4.424;2022-07-09T13:11:38;25.60;99.90
23471;DHT22;11908;50.806;4.424;2022-07-09T13:14:07;25.60;99.90
23471;DHT22;11908;50.806;4.424;2022-07-09T13:16:37;25.90;99.90
23471;DHT22;11908;50.806;4.424;2022-07-09T13:19:04;26.10;99.90
23471;DHT22;11908;50.806;4.424;2022-07-09T13:21:29;26.00;99.90
23471;DHT22;11908;50.806;4.424;2022-07-09T13:23:56;26.20;99.90
23471;DHT22;11908;50.806;4.424;2022-07-09T13:26:22;26.10;99.90
23471;DHT22;11908;50.806;4.424;2022-07-09T13:28:47;26.20;99.90
23471;DHT22;11908;50.806;4.424;2022-07-09T13:31:13;26.20;99.90
23471;DHT22;11908;50.806;4.424;2022-07-09T13:33:39;26.20;99.90
23471;DHT22;11908;50.806;4.424;2022-07-09T13:36:05;25.80;99.90
23471;DHT22;11908;50.806;4.424;2022-07-09T13:38:32;25.40;99.90
23471;DHT22;11908;50.806;4.424;2022-07-09T13:40:58;25.30;99.90
23471;DHT22;11908;50.806;4.424;2022-07-09T13:43:24;25.30;99.90
23471;DHT22;11908;50.806;4.424;2022-07-09T13:45:55;25.20;99.90
23471;DHT22;11908;50.806;4.424;2022-07-09T13:48:21;25.30;99.90
23471;DHT22;11908;50.806;4.424;2022-07-09T13:50:47;25.60;99.90
23471;DHT22;11908;50.806;4.424;2022-07-09T13:53:13;25.60;99.90
23471;DHT22;11908;50.806;4.424;2022-07-09T13:55:39;26.00;99.90
23471;DHT22;11908;50.806;4.424;2022-07-09T13:58:05;26.00;99.90
23471;DHT22;11908;50.806;4.424;2022-07-09T14:00:31;26.00;99.90
23471;DHT22;11908;50.806;4.424;2022-07-09T14:02:57;25.70;99.90
23471;DHT22;11908;50.806;4.424;2022-07-09T14:05:22;25.60;99.90
23471;DHT22;11908;50.806;4.424;2022-07-09T14:07:48;25.50;99.90
23471;DHT22;11908;50.806;4.424;2022-07-09T14:10:14;25.60;99.90
23471;DHT22;11908;50.806;4.424;2022-07-09T14:12:40;25.60;99.90
23471;DHT22;11908;50.806;4.424;2022-07-09T14:15:06;25.80;99.90
23471;DHT22;11908;50.806;4.424;2022-07-09T14:17:32;26.00;99.90
23471;DHT22;11908;50.806;4.424;2022-07-09T14:19:57;26.10;99.90
23471;DHT22;11908;50.806;4.424;2022-07-09T14:22:26;26.10;99.90
23471;DHT22;11908;50.806;4.424;2022-07-09T14:24:52;26.00;99.80
23471;DHT22;11908;50.806;4.424;2022-07-09T14:27:18;25.90;99.90
23471;DHT22;11908;50.806;4.424;2022-07-09T14:29:44;25.70;99.90
23471;DHT22;11908;50.806;4.424;2022-07-09T14:32:09;25.50;99.90
23471;DHT22;11908;50.806;4.424;2022-07-09T14:34:35;25.60;99.90
23471;DHT22;11908;50.806;4.424;2022-07-09T14:37:01;25.50;99.90
23471;DHT22;11908;50.806;4.424;2022-07-09T14:39:27;25.30;99.90
23471;DHT22;11908;50.806;4.424;2022-07-09T14:41:53;25.20;99.90
23471;DHT22;11908;50.806;4.424;2022-07-09T14:44:19;25.00;99.90
23471;DHT22;11908;50.806;4.424;2022-07-09T14:46:45;24.80;99.90
23471;DHT22;11908;50.806;4.424;2022-07-09T14:49:10;24.50;99.90
23471;DHT22;11908;50.806;4.424;2022-07-09T14:51:37;24.30;99.90
23471;DHT22;11908;50.806;4.424;2022-07-09T14:54:03;24.30;99.90
23471;DHT22;11908;50.806;4.424;2022-07-09T14:56:29;24.50;99.90
23471;DHT22;11908;50.806;4.424;2022-07-09T14:58:55;24.60;99.90
23471;DHT22;11908;50.806;4.424;2022-07-09T15:01:21;24.70;99.90
23471;DHT22;11908;50.806;4.424;2022-07-09T15:03:47;24.70;99.90
23471;DHT22;11908;50.806;4.424;2022-07-09T15:06:13;24.40;99.90
23471;DHT22;11908;50.806;4.424;2022-07-09T15:08:38;24.30;99.90
23471;DHT22;11908;50.806;4.424;2022-07-09T15:11:05;24.20;99.90
23471;DHT22;11908;50.806;4.424;2022-07-09T15:13:31;24.20;99.90
23471;DHT22;11908;50.806;4.424;2022-07-09T15:15:56;24.00;99.90
23471;DHT22;11908;50.806;4.424;2022-07-09T15:18:22;24.00;99.90
23471;DHT22;11908;50.806;4.424;2022-07-09T15:20:48;23.70;99.90
23471;DHT22;11908;50.806;4.424;2022-07-09T15:23:14;23.70;99.90
23471;DHT22;11908;50.806;4.424;2022-07-09T15:25:40;23.50;99.90
23471;DHT22;11908;50.806;4.424;2022-07-09T15:28:06;23.50;99.90
23471;DHT22;11908;50.806;4.424;2022-07-09T15:30:32;23.30;99.90
23471;DHT22;11908;50.806;4.424;2022-07-09T15:32:58;23.30;99.90
23471;DHT22;11908;50.806;4.424;2022-07-09T15:35:23;23.30;99.90
23471;DHT22;11908;50.806;4.424;2022-07-09T15:37:49;23.40;99.90
23471;DHT22;11908;50.806;4.424;2022-07-09T15:40:15;23.40;99.90
23471;DHT22;11908;50.806;4.424;2022-07-09T15:42:45;23.50;99.90